sensor_id;sensor_type;location;lat;lon;timestamp;noise_LAeq;noise_LA_min;noise_LA_max;noise_LA01;noise_LA95
67900;Laerm;54700;51.796;10.956;2022-09-29T00:00:25;31.10;27.59;38.95;;
67900;Laerm;54700;51.796;10.956;2022-09-29T00:02:53;31.88;28.16;42.24;;
67900;Laerm;54700;51.796;10.956;2022-09-29T00:05:20;30.22;27.14;40.59;;
67900;Laerm;54700;51.796;10.956;2022-09-29T00:07:47;32.00;27.51;39.70;;
67900;Laerm;54700;51.796;10.956;2022-09-29T00:10:17;30.80;27.83;44.59;;
67900;Laerm;54700;51.796;10.956;2022-09-29T00:12:45;53.52;28.87;70.08;;
67900;Laerm;54700;51.796;10.956;2022-09-29T00:15:14;49.32;27.69;66.70;;
67900;Laerm;54700;51.796;10.956;2022-09-29T00:17:41;30.01;27.56;43.01;;
67900;Laerm;54700;51.796;10.956;2022-09-29T00:20:08;32.05;27.90;39.66;;
67900;Laerm;54700;51.796;10.956;2022-09-29T00:22:35;52.52;28.37;68.99;;
67900;Laerm;54700;51.796;10.956;2022-09-29T00:25:04;30.54;27.96;40.86;;
67900;Laerm;54700;51.796;10.956;2022-09-29T00:27:31;31.67;28.18;40.20;;
67900;Laerm;54700;51.796;10.956;2022-09-29T00:29:57;32.35;28.13;40.11;;
67900;Laerm;54700;51.796;10.956;2022-09-29T00:32:26;31.94;28.48;40.78;;
67900;Laerm;54700;51.796;10.956;2022-09-29T00:34:52;29.50;27.36;37.37;;
67900;Laerm;54700;51.796;10.956;2022-09-29T00:37:19;29.28;27.27;39.55;;
67900;Laerm;54700;51.796;10.956;2022-09-29T00:39:46;34.54;28.16;47.22;;
67900;Laerm;54700;51.796;10.956;2022-09-29T00:42:17;54.50;28.09;73.29;;
67900;Laerm;54700;51.796;10.956;2022-09-29T00:45:04;51.25;27.71;68.09;;
67900;Laerm;54700;51.796;10.956;2022-09-29T00:47:34;29.99;27.69;38.56;;
67900;Laerm;54700;51.796;10.956;2022-09-29T00:50:04;29.48;27.35;38.73;;
67900;Laerm;54700;51.796;10.956;2022-09-29T00:52:37;48.45;27.57;64.46;;
67900;Laerm;54700;51.796;10.956;2022-09-29T00:55:11;28.80;27.38;38.40;;
67900;Laerm;54700;51.796;10.956;2022-09-29T00:57:43;31.22;27.86;39.24;;
67900;Laerm;54700;51.796;10.956;2022-09-29T01:00:13;30.61;27.81;38.40;;
67900;Laerm;54700;51.796;10.956;2022-09-29T01:02:45;32.33;28.02;41.21;;
67900;Laerm;54700;51.796;10.956;2022-09-29T01:05:17;48.17;28.07;65.50;;
67900;Laerm;54700;51.796;10.956;2022-09-29T01:07:45;30.23;27.89;39.92;;
67900;Laerm;54700;51.796;10.956;2022-09-29T01:10:14;30.31;27.91;39.33;;
67900;Laerm;54700;51.796;10.956;2022-09-29T01:12:44;52.48;28.03;67.51;;
67900;Laerm;54700;51.796;10.956;2022-09-29T01:15:13;34.75;27.68;47.40;;
67900;Laerm;54700;51.796;10.956;2022-09-29T01:17:43;29.75;27.30;38.41;;
67900;Laerm;54700;51.796;10.956;2022-09-29T01:20:13;33.57;28.25;43.27;;
67900;Laerm;54700;51.796;10.956;2022-09-29T01:23:09;33.04;28.07;44.88;;
67900;Laerm;54700;51.796;10.956;2022-09-29T01:25:58;33.98;27.95;46.66;;
67900;Laerm;54700;51.796;10.956;2022-09-29T01:28:45;32.51;28.42;42.88;;
67900;Laerm;54700;51.796;10.956;2022-09-29T01:31:22;32.25;27.38;53.47;;
67900;Laerm;54700;51.796;10.956;2022-09-29T01:34:00;47.31;28.08;64.26;;
67900;Laerm;54700;51.796;10.956;2022-09-29T01:36:36;52.66;28.17;70.18;;
67900;Laerm;54700;51.796;10.956;2022-09-29T01:39:12;31.80;28.15;40.78;;
67900;Laerm;54700;51.796;10.956;2022-09-29T01:41:45;31.54;28.20;39.98;;
67900;Laerm;54700;51.796;10.956;2022-09-29T01:44:19;32.64;28.93;39.81;;
67900;Laerm;54700;51.796;10.956;2022-09-29T01:46:52;54.81;27.76;71.83;;
67900;Laerm;54700;51.796;10.956;2022-09-29T01:49:22;33.44;27.93;41.46;;
67900;Laerm;54700;51.796;10.956;2022-09-29T01:51:53;31.94;27.55;45.57;;
67900;Laerm;54700;51.796;10.956;2022-09-29T01:54:25;48.73;28.47;64.67;;
67900;Laerm;54700;51.796;10.956;2022-09-29T01:56:58;51.97;27.67;69.82;;
67900;Laerm;54700;51.796;10.956;2022-09-29T01:59:32;31.81;27.74;40.96;;
67900;Laerm;54700;51.796;10.956;2022-09-29T02:02:05;32.02;28.39;39.40;;
67900;Laerm;54700;51.796;10.956;2022-09-29T02:04:39;35.99;29.64;50.23;;
67900;Laerm;54700;51.796;10.956;2022-09-29T02:07:11;33.09;29.28;40.17;;
67900;Laerm;54700;51.796;10.956;2022-09-29T02:09:42;47.57;29.19;66.65;;
67900;Laerm;54700;51.796;10.956;2022-09-29T02:12:15;56.32;28.67;71.31;;
67900;Laerm;54700;51.796;10.956;2022-09-29T02:14:44;49.25;28.77;64.94;;
67900;Laerm;54700;51.796;10.956;2022-09-29T02:17:16;60.22;29.63;78.08;;
67900;Laerm;54700;51.796;10.956;2022-09-29T02:19:46;52.91;30.24;69.51;;
67900;Laerm;54700;51.796;10.956;2022-09-29T02:22:13;48.95;30.24;65.39;;
67900;Laerm;54700;51.796;10.956;2022-09-29T02:24:41;34.48;30.62;40.76;;
67900;Laerm;54700;51.796;10.956;2022-09-29T02:27:09;54.70;30.42;68.61;;
67900;Laerm;54700;51.796;10.956;2022-09-29T02:29:36;34.19;30.26;43.11;;
67900;Laerm;54700;51.796;10.956;2022-09-29T02:32:05;32.91;28.66;41.37;;
67900;Laerm;54700;51.796;10.956;2022-09-29T02:34:36;60.83;31.03;74.45;;
67900;Laerm;54700;51.796;10.956;2022-09-29T02:37:18;59.04;33.74;71.98;;
67900;Laerm;54700;51.796;10.956;2022-09-29T02:39:51;52.21;31.84;67.69;;
67900;Laerm;54700;51.796;10.956;2022-09-29T02:42:27;54.43;31.20;72.47;;
67900;Laerm;54700;51.796;10.956;2022-09-29T02:45:19;55.71;30.02;72.21;;
67900;Laerm;54700;51.796;10.956;2022-09-29T02:48:05;36.87;31.25;48.87;;
67900;Laerm;54700;51.796;10.956;2022-09-29T02:50:55;50.10;33.15;66.06;;
67900;Laerm;54700;51.796;10.956;2022-09-29T02:53:38;56.90;32.06;71.02;;
67900;Laerm;54700;51.796;10.956;2022-09-29T02:56:15;54.97;31.64;72.09;;
67900;Laerm;54700;51.796;10.956;2022-09-29T02:58:51;53.55;32.65;68.33;;
67900;Laerm;54700;51.796;10.956;2022-09-29T03:01:19;62.06;33.42;79.00;;
67900;Laerm;54700;51.796;10.956;2022-09-29T03:03:46;56.44;33.38;69.18;;
67900;Laerm;54700;51.796;10.956;2022-09-29T03:06:15;56.46;32.56;68.57;;
67900;Laerm;54700;51.796;10.956;2022-09-29T03:08:44;48.43;32.60;65.46;;
67900;Laerm;54700;51.796;10.956;2022-09-29T03:11:11;50.96;32.63;68.39;;
67900;Laerm;54700;51.796;10.956;2022-09-29T03:13:37;59.98;35.34;70.28;;
67900;Laerm;54700;51.796;10.956;2022-09-29T03:16:04;50.72;32.78;68.60;;
67900;Laerm;54700;51.796;10.956;2022-09-29T03:18:31;54.78;33.27;70.77;;
67900;Laerm;54700;51.796;10.956;2022-09-29T03:20:58;54.92;34.71;69.44;;
67900;Laerm;54700;51.796;10.956;2022-09-29T03:23:26;58.85;36.91;69.43;;
67900;Laerm;54700;51.796;10.956;2022-09-29T03:25:55;61.02;36.90;71.48;;
67900;Laerm;54700;51.796;10.956;2022-09-29T03:28:23;63.50;36.92;72.63;;
67900;Laerm;54700;51.796;10.956;2022-09-29T03:30:49;60.67;40.68;74.12;;
67900;Laerm;54700;51.796;10.956;2022-09-29T03:33:16;59.28;36.93;73.54;;
67900;Laerm;54700;51.796;10.956;2022-09-29T03:35:43;57.25;37.40;70.11;;
67900;Laerm;54700;51.796;10.956;2022-09-29T03:38:10;56.83;36.85;69.15;;
67900;Laerm;54700;51.796;10.956;2022-09-29T03:40:38;58.06;37.62;70.10;;
67900;Laerm;54700;51.796;10.956;2022-09-29T03:43:05;58.56;38.71;70.84;;
67900;Laerm;54700;51.796;10.956;2022-09-29T03:45:34;63.76;39.96;76.00;;
67900;Laerm;54700;51.796;10.956;2022-09-29T03:48:01;61.10;37.39;71.87;;
67900;Laerm;54700;51.796;10.956;2022-09-29T03:50:28;61.83;36.95;72.01;;
67900;Laerm;54700;51.796;10.956;2022-09-29T03:52:57;61.53;37.64;72.54;;
67900;Laerm;54700;51.796;10.956;2022-09-29T03:55:24;62.56;38.63;79.30;;
67900;Laerm;54700;51.796;10.956;2022-09-29T03:57:52;60.39;38.70;72.20;;
67900;Laerm;54700;51.796;10.956;2022-09-29T04:00:19;60.54;36.40;71.99;;
67900;Laerm;54700;51.796;10.956;2022-09-29T04:02:45;61.04;37.69;70.82;;
67900;Laerm;54700;51.796;10.956;2022-09-29T04:05:12;61.32;37.72;71.86;;
67900;Laerm;54700;51.796;10.956;2022-09-29T04:07:39;71.88;37.30;90.23;;
67900;Laerm;54700;51.796;10.956;2022-09-29T04:10:06;55.91;37.19;71.86;;
67900;Laerm;54700;51.796;10.956;2022-09-29T04:12:33;60.30;37.08;70.37;;
67900;Laerm;54700;51.796;10.956;2022-09-29T04:15:02;63.87;39.54;72.25;;
67900;Laerm;54700;51.796;10.956;2022-09-29T04:17:29;61.63;39.09;72.39;;
67900;Laerm;54700;51.796;10.956;2022-09-29T04:19:56;59.44;37.97;70.08;;
67900;Laerm;54700;51.796;10.956;2022-09-29T04:22:23;63.31;41.84;74.02;;
67900;Laerm;54700;51.796;10.956;2022-09-29T04:24:50;63.37;46.05;71.53;;
67900;Laerm;54700;51.796;10.956;2022-09-29T04:27:17;62.31;39.69;70.29;;
67900;Laerm;54700;51.796;10.956;2022-09-29T04:29:44;61.72;38.60;70.86;;
67900;Laerm;54700;51.796;10.956;2022-09-29T04:32:16;61.09;44.78;70.04;;
67900;Laerm;54700;51.796;10.956;2022-09-29T04:34:42;61.26;41.48;70.96;;
67900;Laerm;54700;51.796;10.956;2022-09-29T04:37:09;63.14;50.68;71.83;;
67900;Laerm;54700;51.796;10.956;2022-09-29T04:39:39;63.63;47.69;72.40;;
67900;Laerm;54700;51.796;10.956;2022-09-29T04:42:06;64.18;39.61;75.28;;
67900;Laerm;54700;51.796;10.956;2022-09-29T04:44:33;63.05;46.66;75.23;;
67900;Laerm;54700;51.796;10.956;2022-09-29T04:47:00;64.96;53.14;74.77;;
67900;Laerm;54700;51.796;10.956;2022-09-29T04:49:28;63.10;45.67;74.10;;
67900;Laerm;54700;51.796;10.956;2022-09-29T04:52:00;65.01;43.73;74.22;;
67900;Laerm;54700;51.796;10.956;2022-09-29T04:54:33;65.48;45.99;76.54;;
67900;Laerm;54700;51.796;10.956;2022-09-29T04:57:03;64.88;51.68;73.00;;
67900;Laerm;54700;51.796;10.956;2022-09-29T04:59:37;64.68;53.26;83.13;;
67900;Laerm;54700;51.796;10.956;2022-09-29T05:02:04;64.40;51.84;73.46;;
67900;Laerm;54700;51.796;10.956;2022-09-29T05:04:40;63.71;41.21;72.16;;
67900;Laerm;54700;51.796;10.956;2022-09-29T05:07:14;64.27;51.08;74.12;;
67900;Laerm;54700;51.796;10.956;2022-09-29T05:09:41;64.08;45.25;74.32;;
67900;Laerm;54700;51.796;10.956;2022-09-29T05:12:09;64.25;46.07;75.53;;
67900;Laerm;54700;51.796;10.956;2022-09-29T05:14:36;63.80;46.96;72.34;;
67900;Laerm;54700;51.796;10.956;2022-09-29T05:17:06;62.75;40.59;71.55;;
67900;Laerm;54700;51.796;10.956;2022-09-29T05:19:34;62.86;48.09;73.62;;
67900;Laerm;54700;51.796;10.956;2022-09-29T05:22:01;63.21;41.01;74.87;;
67900;Laerm;54700;51.796;10.956;2022-09-29T05:24:29;63.88;47.15;73.81;;
67900;Laerm;54700;51.796;10.956;2022-09-29T05:27:10;66.02;49.58;74.93;;
67900;Laerm;54700;51.796;10.956;2022-09-29T05:30:08;65.93;47.88;76.35;;
67900;Laerm;54700;51.796;10.956;2022-09-29T05:32:41;63.63;48.23;71.31;;
67900;Laerm;54700;51.796;10.956;2022-09-29T05:35:40;64.32;48.30;74.43;;
67900;Laerm;54700;51.796;10.956;2022-09-29T05:38:28;63.59;47.77;73.14;;
67900;Laerm;54700;51.796;10.956;2022-09-29T05:40:57;61.26;40.78;70.50;;
67900;Laerm;54700;51.796;10.956;2022-09-29T05:43:32;62.46;45.21;74.28;;
67900;Laerm;54700;51.796;10.956;2022-09-29T05:49:14;64.30;42.22;74.53;;
67900;Laerm;54700;51.796;10.956;2022-09-29T05:52:19;65.19;55.10;74.93;;
67900;Laerm;54700;51.796;10.956;2022-09-29T06:02:56;64.46;42.10;72.05;;
67900;Laerm;54700;51.796;10.956;2022-09-29T06:05:38;64.73;46.86;77.10;;
67900;Laerm;54700;51.796;10.956;2022-09-29T06:08:24;62.82;39.35;72.69;;
67900;Laerm;54700;51.796;10.956;2022-09-29T06:11:11;62.46;42.37;72.42;;
67900;Laerm;54700;51.796;10.956;2022-09-29T06:13:43;59.37;37.29;71.09;;
67900;Laerm;54700;51.796;10.956;2022-09-29T06:16:15;61.84;38.59;69.35;;
67900;Laerm;54700;51.796;10.956;2022-09-29T06:18:48;62.21;36.13;73.06;;
67900;Laerm;54700;51.796;10.956;2022-09-29T06:21:17;63.56;45.16;70.93;;
67900;Laerm;54700;51.796;10.956;2022-09-29T06:23:50;61.74;38.59;70.97;;
67900;Laerm;54700;51.796;10.956;2022-09-29T06:26:19;63.52;40.99;72.39;;
67900;Laerm;54700;51.796;10.956;2022-09-29T06:28:47;63.62;47.60;71.32;;
67900;Laerm;54700;51.796;10.956;2022-09-29T06:31:15;59.17;36.75;70.22;;
67900;Laerm;54700;51.796;10.956;2022-09-29T06:33:46;63.10;40.85;78.00;;
67900;Laerm;54700;51.796;10.956;2022-09-29T06:36:30;64.37;44.03;85.75;;
67900;Laerm;54700;51.796;10.956;2022-09-29T06:39:16;64.48;45.06;80.87;;
67900;Laerm;54700;51.796;10.956;2022-09-29T06:41:44;66.22;39.70;76.32;;
67900;Laerm;54700;51.796;10.956;2022-09-29T06:44:23;65.42;40.71;73.68;;
67900;Laerm;54700;51.796;10.956;2022-09-29T06:49:46;64.74;45.68;77.37;;
67900;Laerm;54700;51.796;10.956;2022-09-29T06:52:32;62.51;36.81;83.50;;
67900;Laerm;54700;51.796;10.956;2022-09-29T06:55:05;65.27;43.82;74.69;;
67900;Laerm;54700;51.796;10.956;2022-09-29T06:57:38;65.86;38.84;80.40;;
67900;Laerm;54700;51.796;10.956;2022-09-29T07:00:19;64.33;41.29;82.76;;
67900;Laerm;54700;51.796;10.956;2022-09-29T07:06:12;63.04;39.88;81.21;;
67900;Laerm;54700;51.796;10.956;2022-09-29T07:09:03;63.60;40.96;75.03;;
67900;Laerm;54700;51.796;10.956;2022-09-29T07:11:45;65.48;38.26;80.69;;
67900;Laerm;54700;51.796;10.956;2022-09-29T07:14:20;64.19;43.51;73.53;;
67900;Laerm;54700;51.796;10.956;2022-09-29T07:16:59;66.80;37.54;91.29;;
67900;Laerm;54700;51.796;10.956;2022-09-29T07:19:46;64.62;40.23;89.45;;
67900;Laerm;54700;51.796;10.956;2022-09-29T07:22:34;63.44;43.54;80.67;;
67900;Laerm;54700;51.796;10.956;2022-09-29T07:25:15;66.76;40.87;87.24;;
67900;Laerm;54700;51.796;10.956;2022-09-29T07:27:47;65.81;48.13;86.25;;
67900;Laerm;54700;51.796;10.956;2022-09-29T07:30:16;61.26;36.18;78.28;;
67900;Laerm;54700;51.796;10.956;2022-09-29T07:32:46;60.89;35.35;70.53;;
67900;Laerm;54700;51.796;10.956;2022-09-29T07:35:35;63.40;43.96;74.56;;
67900;Laerm;54700;51.796;10.956;2022-09-29T07:56:35;64.15;48.91;76.55;;
67900;Laerm;54700;51.796;10.956;2022-09-29T08:01:44;66.23;49.44;78.70;;
67900;Laerm;54700;51.796;10.956;2022-09-29T08:04:29;65.01;47.69;76.60;;
67900;Laerm;54700;51.796;10.956;2022-09-29T08:07:13;65.03;41.44;76.95;;
67900;Laerm;54700;51.796;10.956;2022-09-29T08:09:51;64.88;44.46;83.65;;
67900;Laerm;54700;51.796;10.956;2022-09-29T08:12:28;65.06;48.36;78.15;;
67900;Laerm;54700;51.796;10.956;2022-09-29T08:14:57;65.35;48.55;78.62;;
67900;Laerm;54700;51.796;10.956;2022-09-29T08:17:28;64.76;43.49;76.94;;
67900;Laerm;54700;51.796;10.956;2022-09-29T08:19:55;64.75;43.98;77.36;;
67900;Laerm;54700;51.796;10.956;2022-09-29T08:22:27;65.89;44.31;92.76;;
67900;Laerm;54700;51.796;10.956;2022-09-29T08:25:05;62.43;41.89;75.08;;
67900;Laerm;54700;51.796;10.956;2022-09-29T08:27:34;63.89;40.84;71.13;;
67900;Laerm;54700;51.796;10.956;2022-09-29T08:30:04;63.99;42.34;73.75;;
67900;Laerm;54700;51.796;10.956;2022-09-29T08:32:31;65.76;40.13;92.93;;
67900;Laerm;54700;51.796;10.956;2022-09-29T08:35:04;64.25;40.33;82.98;;
67900;Laerm;54700;51.796;10.956;2022-09-29T08:38:00;64.03;48.47;78.18;;
67900;Laerm;54700;51.796;10.956;2022-09-29T08:40:37;66.10;40.75;83.87;;
67900;Laerm;54700;51.796;10.956;2022-09-29T08:43:13;65.16;38.77;82.50;;
67900;Laerm;54700;51.796;10.956;2022-09-29T08:46:03;63.25;47.06;81.79;;
67900;Laerm;54700;51.796;10.956;2022-09-29T08:48:41;63.39;44.33;79.26;;
67900;Laerm;54700;51.796;10.956;2022-09-29T08:51:23;64.56;38.34;72.77;;
67900;Laerm;54700;51.796;10.956;2022-09-29T08:53:59;64.80;47.37;74.08;;
67900;Laerm;54700;51.796;10.956;2022-09-29T08:56:38;64.18;47.87;71.84;;
67900;Laerm;54700;51.796;10.956;2022-09-29T08:59:10;64.33;42.02;75.04;;
67900;Laerm;54700;51.796;10.956;2022-09-29T09:06:05;72.91;44.77;97.94;;
67900;Laerm;54700;51.796;10.956;2022-09-29T09:11:59;62.59;44.31;73.50;;
67900;Laerm;54700;51.796;10.956;2022-09-29T09:14:53;64.34;39.93;71.87;;
67900;Laerm;54700;51.796;10.956;2022-09-29T10:02:20;62.83;42.05;74.00;;
67900;Laerm;54700;51.796;10.956;2022-09-29T10:05:15;64.08;47.79;76.46;;
67900;Laerm;54700;51.796;10.956;2022-09-29T10:08:17;65.05;44.12;78.13;;
67900;Laerm;54700;51.796;10.956;2022-09-29T10:10:51;62.38;43.93;69.42;;
67900;Laerm;54700;51.796;10.956;2022-09-29T10:13:24;65.86;46.62;79.21;;
67900;Laerm;54700;51.796;10.956;2022-09-29T10:15:56;62.41;39.00;72.43;;
67900;Laerm;54700;51.796;10.956;2022-09-29T10:18:36;64.68;39.86;74.34;;
67900;Laerm;54700;51.796;10.956;2022-09-29T10:21:19;64.38;50.57;72.61;;
67900;Laerm;54700;51.796;10.956;2022-09-29T10:23:49;62.50;38.64;74.20;;
67900;Laerm;54700;51.796;10.956;2022-09-29T10:26:25;62.60;37.39;70.97;;
67900;Laerm;54700;51.796;10.956;2022-09-29T10:28:57;65.07;43.15;76.52;;
67900;Laerm;54700;51.796;10.956;2022-09-29T10:31:26;60.38;39.98;69.94;;
67900;Laerm;54700;51.796;10.956;2022-09-29T10:34:02;64.34;45.14;73.67;;
67900;Laerm;54700;51.796;10.956;2022-09-29T10:36:52;61.95;41.43;73.45;;
67900;Laerm;54700;51.796;10.956;2022-09-29T10:39:31;63.29;39.77;76.16;;
67900;Laerm;54700;51.796;10.956;2022-09-29T10:41:59;60.93;40.88;71.20;;
67900;Laerm;54700;51.796;10.956;2022-09-29T10:44:32;63.90;44.35;74.26;;
67900;Laerm;54700;51.796;10.956;2022-09-29T10:47:19;62.77;35.04;78.51;;
67900;Laerm;54700;51.796;10.956;2022-09-29T10:50:13;61.73;35.02;71.56;;
67900;Laerm;54700;51.796;10.956;2022-09-29T10:53:03;62.11;40.44;73.78;;
67900;Laerm;54700;51.796;10.956;2022-09-29T10:58:54;64.09;42.39;72.00;;
67900;Laerm;54700;51.796;10.956;2022-09-29T11:01:46;63.48;46.36;71.50;;
67900;Laerm;54700;51.796;10.956;2022-09-29T11:11:20;63.67;42.08;73.45;;
67900;Laerm;54700;51.796;10.956;2022-09-29T11:13:51;62.88;47.27;70.53;;
67900;Laerm;54700;51.796;10.956;2022-09-29T11:16:31;62.30;37.56;73.93;;
67900;Laerm;54700;51.796;10.956;2022-09-29T11:19:09;63.86;41.41;73.96;;
67900;Laerm;54700;51.796;10.956;2022-09-29T11:22:22;62.72;38.20;79.58;;
67900;Laerm;54700;51.796;10.956;2022-09-29T11:25:24;62.67;36.55;82.72;;
67900;Laerm;54700;51.796;10.956;2022-09-29T11:28:16;63.52;39.22;71.55;;
67900;Laerm;54700;51.796;10.956;2022-09-29T11:30:54;62.57;37.32;76.62;;
67900;Laerm;54700;51.796;10.956;2022-09-29T11:33:40;62.32;38.59;73.86;;
67900;Laerm;54700;51.796;10.956;2022-09-29T11:36:23;65.30;43.11;83.24;;
67900;Laerm;54700;51.796;10.956;2022-09-29T11:39:14;61.88;36.43;84.44;;
67900;Laerm;54700;51.796;10.956;2022-09-29T11:42:08;78.89;50.08;88.70;;
67900;Laerm;54700;51.796;10.956;2022-09-29T11:44:59;81.77;42.80;92.26;;
67900;Laerm;54700;51.796;10.956;2022-09-29T11:50:33;81.25;51.84;96.37;;
67900;Laerm;54700;51.796;10.956;2022-09-29T11:53:25;63.03;37.58;82.03;;
67900;Laerm;54700;51.796;10.956;2022-09-29T11:56:05;63.43;44.32;79.59;;
67900;Laerm;54700;51.796;10.956;2022-09-29T11:58:45;64.73;49.08;81.16;;
67900;Laerm;54700;51.796;10.956;2022-09-29T12:01:28;84.31;62.06;92.13;;
67900;Laerm;54700;51.796;10.956;2022-09-29T12:04:15;64.17;43.55;79.71;;
67900;Laerm;54700;51.796;10.956;2022-09-29T12:07:03;62.14;39.87;75.55;;
67900;Laerm;54700;51.796;10.956;2022-09-29T12:09:46;63.63;48.19;73.01;;
67900;Laerm;54700;51.796;10.956;2022-09-29T12:12:26;65.10;40.47;77.52;;
67900;Laerm;54700;51.796;10.956;2022-09-29T12:15:14;64.45;33.61;81.58;;
67900;Laerm;54700;51.796;10.956;2022-09-29T12:18:11;65.52;45.43;87.72;;
67900;Laerm;54700;51.796;10.956;2022-09-29T12:20:54;63.97;34.40;83.65;;
67900;Laerm;54700;51.796;10.956;2022-09-29T12:23:28;64.34;46.96;72.54;;
67900;Laerm;54700;51.796;10.956;2022-09-29T12:26:09;63.81;39.99;72.46;;
67900;Laerm;54700;51.796;10.956;2022-09-29T12:28:43;62.90;41.51;71.63;;
67900;Laerm;54700;51.796;10.956;2022-09-29T12:31:31;64.08;40.36;74.36;;
67900;Laerm;54700;51.796;10.956;2022-09-29T12:34:04;64.44;39.84;73.18;;
67900;Laerm;54700;51.796;10.956;2022-09-29T12:36:43;62.20;38.53;70.48;;
67900;Laerm;54700;51.796;10.956;2022-09-29T12:39:39;63.72;44.86;73.85;;
67900;Laerm;54700;51.796;10.956;2022-09-29T12:42:36;62.62;34.28;72.06;;
67900;Laerm;54700;51.796;10.956;2022-09-29T12:45:25;63.77;43.49;71.88;;
67900;Laerm;54700;51.796;10.956;2022-09-29T12:48:01;63.92;43.71;70.31;;
67900;Laerm;54700;51.796;10.956;2022-09-29T12:50:38;63.17;34.84;74.89;;
67900;Laerm;54700;51.796;10.956;2022-09-29T12:53:14;64.93;45.29;77.11;;
67900;Laerm;54700;51.796;10.956;2022-09-29T12:55:46;64.12;48.95;71.31;;
67900;Laerm;54700;51.796;10.956;2022-09-29T12:58:20;61.17;42.38;70.50;;
67900;Laerm;54700;51.796;10.956;2022-09-29T13:01:01;65.33;40.07;73.43;;
67900;Laerm;54700;51.796;10.956;2022-09-29T13:03:42;65.39;47.90;75.33;;
67900;Laerm;54700;51.796;10.956;2022-09-29T13:20:15;62.72;49.46;69.81;;
67900;Laerm;54700;51.796;10.956;2022-09-29T13:23:10;63.83;53.28;70.26;;
67900;Laerm;54700;51.796;10.956;2022-09-29T13:25:54;62.78;42.64;71.52;;
67900;Laerm;54700;51.796;10.956;2022-09-29T13:28:30;63.85;45.11;71.76;;
67900;Laerm;54700;51.796;10.956;2022-09-29T13:31:05;64.23;52.85;71.48;;
67900;Laerm;54700;51.796;10.956;2022-09-29T13:33:33;61.53;43.53;75.41;;
67900;Laerm;54700;51.796;10.956;2022-09-29T13:36:09;64.18;46.97;79.17;;
67900;Laerm;54700;51.796;10.956;2022-09-29T13:38:38;64.71;40.34;74.95;;
67900;Laerm;54700;51.796;10.956;2022-09-29T13:41:14;63.75;48.59;74.81;;
67900;Laerm;54700;51.796;10.956;2022-09-29T13:44:02;65.49;42.90;76.16;;
67900;Laerm;54700;51.796;10.956;2022-09-29T13:46:37;64.08;46.56;71.94;;
67900;Laerm;54700;51.796;10.956;2022-09-29T13:49:14;63.53;46.75;73.20;;
67900;Laerm;54700;51.796;10.956;2022-09-29T13:51:47;64.78;49.66;72.59;;
67900;Laerm;54700;51.796;10.956;2022-09-29T13:54:37;65.20;51.91;74.45;;
67900;Laerm;54700;51.796;10.956;2022-09-29T13:57:26;64.50;42.48;74.37;;
67900;Laerm;54700;51.796;10.956;2022-09-29T14:00:24;65.44;47.21;75.80;;
67900;Laerm;54700;51.796;10.956;2022-09-29T14:03:18;64.83;43.03;72.19;;
67900;Laerm;54700;51.796;10.956;2022-09-29T14:05:56;64.01;38.73;72.41;;
67900;Laerm;54700;51.796;10.956;2022-09-29T14:08:36;65.00;49.71;73.72;;
67900;Laerm;54700;51.796;10.956;2022-09-29T14:11:18;64.31;48.61;72.00;;
67900;Laerm;54700;51.796;10.956;2022-09-29T14:13:51;65.68;43.77;72.58;;
67900;Laerm;54700;51.796;10.956;2022-09-29T14:16:39;63.65;43.75;71.74;;
67900;Laerm;54700;51.796;10.956;2022-09-29T14:19:25;64.42;40.66;77.78;;
67900;Laerm;54700;51.796;10.956;2022-09-29T14:22:00;66.06;49.36;84.52;;
67900;Laerm;54700;51.796;10.956;2022-09-29T14:24:46;64.41;50.10;70.61;;
67900;Laerm;54700;51.796;10.956;2022-09-29T14:27:22;64.44;38.57;72.22;;
67900;Laerm;54700;51.796;10.956;2022-09-29T14:29:55;64.29;45.87;78.01;;
67900;Laerm;54700;51.796;10.956;2022-09-29T14:32:33;65.98;50.70;73.86;;
67900;Laerm;54700;51.796;10.956;2022-09-29T14:38:03;66.27;38.17;87.69;;
67900;Laerm;54700;51.796;10.956;2022-09-29T14:40:36;63.89;50.41;72.03;;
67900;Laerm;54700;51.796;10.956;2022-09-29T14:43:35;63.13;49.72;72.62;;
67900;Laerm;54700;51.796;10.956;2022-09-29T14:46:15;68.89;53.40;90.77;;
67900;Laerm;54700;51.796;10.956;2022-09-29T14:49:30;64.76;53.04;72.96;;
67900;Laerm;54700;51.796;10.956;2022-09-29T14:52:45;64.76;45.42;77.82;;
67900;Laerm;54700;51.796;10.956;2022-09-29T14:55:22;63.46;47.07;71.34;;
67900;Laerm;54700;51.796;10.956;2022-09-29T14:58:05;62.83;45.20;71.14;;
67900;Laerm;54700;51.796;10.956;2022-09-29T15:00:46;65.18;49.53;72.85;;
67900;Laerm;54700;51.796;10.956;2022-09-29T15:03:22;65.02;50.55;73.51;;
67900;Laerm;54700;51.796;10.956;2022-09-29T15:06:09;63.01;47.04;72.44;;
67900;Laerm;54700;51.796;10.956;2022-09-29T15:08:37;64.26;43.12;76.76;;
67900;Laerm;54700;51.796;10.956;2022-09-29T15:11:26;63.76;40.58;72.53;;
67900;Laerm;54700;51.796;10.956;2022-09-29T15:13:58;63.57;47.46;70.74;;
67900;Laerm;54700;51.796;10.956;2022-09-29T15:16:32;63.78;45.44;72.36;;
67900;Laerm;54700;51.796;10.956;2022-09-29T15:19:16;63.60;43.66;76.41;;
67900;Laerm;54700;51.796;10.956;2022-09-29T15:21:55;63.56;45.15;71.92;;
67900;Laerm;54700;51.796;10.956;2022-09-29T15:24:48;64.52;43.25;79.00;;
67900;Laerm;54700;51.796;10.956;2022-09-29T15:27:19;64.82;45.26;75.69;;
67900;Laerm;54700;51.796;10.956;2022-09-29T15:29:53;63.58;44.78;71.40;;
67900;Laerm;54700;51.796;10.956;2022-09-29T15:32:22;64.64;45.86;74.56;;
67900;Laerm;54700;51.796;10.956;2022-09-29T15:34:50;63.45;41.29;70.83;;
67900;Laerm;54700;51.796;10.956;2022-09-29T15:37:19;63.99;45.35;70.79;;
67900;Laerm;54700;51.796;10.956;2022-09-29T15:39:48;62.99;43.30;73.56;;
67900;Laerm;54700;51.796;10.956;2022-09-29T15:42:19;62.95;38.15;72.94;;
67900;Laerm;54700;51.796;10.956;2022-09-29T15:44:58;62.21;40.59;70.51;;
67900;Laerm;54700;51.796;10.956;2022-09-29T15:47:27;62.40;38.61;69.93;;
67900;Laerm;54700;51.796;10.956;2022-09-29T15:49:55;63.23;35.30;71.52;;
67900;Laerm;54700;51.796;10.956;2022-09-29T15:52:22;63.80;39.98;74.57;;
67900;Laerm;54700;51.796;10.956;2022-09-29T15:54:54;63.97;37.33;74.36;;
67900;Laerm;54700;51.796;10.956;2022-09-29T15:57:41;64.25;45.36;72.41;;
67900;Laerm;54700;51.796;10.956;2022-09-29T16:03:20;63.27;33.93;70.95;;
67900;Laerm;54700;51.796;10.956;2022-09-29T16:06:03;62.22;40.83;72.14;;
67900;Laerm;54700;51.796;10.956;2022-09-29T16:08:34;61.84;38.01;71.87;;
67900;Laerm;54700;51.796;10.956;2022-09-29T16:11:04;63.34;37.86;71.24;;
67900;Laerm;54700;51.796;10.956;2022-09-29T16:13:35;64.15;49.05;72.85;;
67900;Laerm;54700;51.796;10.956;2022-09-29T16:16:06;62.51;38.16;73.18;;
67900;Laerm;54700;51.796;10.956;2022-09-29T16:18:39;63.03;42.43;71.48;;
67900;Laerm;54700;51.796;10.956;2022-09-29T16:21:10;62.14;37.74;72.67;;
67900;Laerm;54700;51.796;10.956;2022-09-29T16:23:42;62.69;50.39;74.24;;